Time;durP1;ratioP1;P1;durP2;ratioP2;P2;SDS_P1;SDS_P2;PMS_P1;PMS_P2;Temp;Humidity;BMP_temperature;BMP_pressure;BME280_temperature;BME280_humidity;BME280_pressure;Samples;Min_cycle;Max_cycle;Signal;HPM_P1;HPM_P2
2022/03/02 00:01:31;;;;;;;;;;;21.60;42.60;;;;;;5074923;28;19924;-43
2022/03/02 00:03:58;;;;;;;;;;;21.60;42.60;;;;;;5075688;28;19935;-43
2022/03/02 00:06:25;;;;;;;;;;;21.60;42.60;;;;;;5075884;28;20422;-45
2022/03/02 00:08:52;;;;;;;;;;;21.60;42.60;;;;;;5075572;28;20384;-44
2022/03/02 00:11:19;;;;;;;;;;;21.60;42.60;;;;;;5075838;28;20300;-46
2022/03/02 00:13:46;;;;;;;;;;;21.60;42.60;;;;;;5075693;28;19928;-42
2022/03/02 00:16:13;;;;;;;;;;;21.60;42.60;;;;;;5074682;28;19932;-45
2022/03/02 00:18:40;;;;;;;;;;;21.60;42.60;;;;;;5075230;28;19959;-50
2022/03/02 00:21:07;;;;;;;;;;;21.60;42.60;;;;;;5075274;28;19928;-43
2022/03/02 00:23:34;;;;;;;;;;;21.60;42.60;;;;;;5075377;28;19967;-45
2022/03/02 00:26:01;;;;;;;;;;;21.60;42.60;;;;;;5064708;28;20054;-44
2022/03/02 00:28:28;;;;;;;;;;;21.60;42.70;;;;;;5055591;28;19970;-43
2022/03/02 00:30:55;;;;;;;;;;;21.60;42.60;;;;;;5055226;28;19975;-45
2022/03/02 00:33:22;;;;;;;;;;;21.60;42.60;;;;;;5074036;28;19928;-43
2022/03/02 00:35:49;;;;;;;;;;;21.60;42.60;;;;;;5075418;28;19925;-46
2022/03/02 00:38:16;;;;;;;;;;;21.60;42.70;;;;;;5075604;28;19931;-42
2022/03/02 00:40:43;;;;;;;;;;;21.60;42.70;;;;;;5075238;28;19978;-43
2022/03/02 00:43:10;;;;;;;;;;;21.60;42.70;;;;;;5075112;28;19964;-43
2022/03/02 00:45:38;;;;;;;;;;;21.60;42.70;;;;;;5075156;28;19924;-43
2022/03/02 00:48:06;;;;;;;;;;;21.60;42.70;;;;;;5073992;28;20392;-44
2022/03/02 00:50:33;;;;;;;;;;;21.60;42.60;;;;;;5074766;28;19925;-44
2022/03/02 00:53:00;;;;;;;;;;;21.60;42.60;;;;;;5074894;28;19924;-44
2022/03/02 00:55:27;;;;;;;;;;;21.60;42.60;;;;;;5074686;28;19970;-46
2022/03/02 00:57:54;;;;;;;;;;;21.60;42.60;;;;;;5074935;28;19970;-42
2022/03/02 01:00:21;;;;;;;;;;;21.60;42.60;;;;;;5074784;28;20330;-44
2022/03/02 01:02:48;;;;;;;;;;;21.60;42.60;;;;;;5073996;28;19932;-45
2022/03/02 01:05:15;;;;;;;;;;;21.60;42.60;;;;;;5075076;28;19986;-45
2022/03/02 01:07:43;;;;;;;;;;;21.60;42.60;;;;;;5074416;28;19924;-46
2022/03/02 01:10:10;;;;;;;;;;;21.60;42.60;;;;;;5074676;28;19980;-42
2022/03/02 01:12:37;;;;;;;;;;;21.60;42.60;;;;;;5074678;28;19990;-44
2022/03/02 01:15:05;;;;;;;;;;;21.60;42.60;;;;;;5074565;28;19924;-46
2022/03/02 01:17:32;;;;;;;;;;;21.60;42.70;;;;;;5066126;28;19968;-46
2022/03/02 01:19:59;;;;;;;;;;;21.60;42.60;;;;;;5054212;28;19924;-46
2022/03/02 01:22:26;;;;;;;;;;;21.60;42.70;;;;;;5054202;28;20273;-45
2022/03/02 01:24:55;;;;;;;;;;;21.60;42.60;;;;;;5054446;28;19925;-46
2022/03/02 01:27:22;;;;;;;;;;;21.60;42.70;;;;;;5054431;28;19987;-44
2022/03/02 01:29:51;;;;;;;;;;;21.60;42.70;;;;;;5053899;28;19970;-45
2022/03/02 01:32:18;;;;;;;;;;;21.60;42.70;;;;;;5058166;28;19951;-45
2022/03/02 01:34:45;;;;;;;;;;;21.60;42.70;;;;;;5074264;28;19940;-44
2022/03/02 01:37:12;;;;;;;;;;;21.60;42.70;;;;;;5072883;28;19967;-46
2022/03/02 01:39:40;;;;;;;;;;;21.60;42.70;;;;;;5056549;28;20283;-46
2022/03/02 01:42:07;;;;;;;;;;;21.60;42.70;;;;;;5073961;28;19968;-45
2022/03/02 01:44:34;;;;;;;;;;;21.60;42.70;;;;;;5074168;28;19956;-43
2022/03/02 01:47:03;;;;;;;;;;;21.60;42.70;;;;;;5072963;28;20007;-48
2022/03/02 01:49:30;;;;;;;;;;;21.60;42.70;;;;;;5074039;28;20380;-42
2022/03/02 01:51:57;;;;;;;;;;;21.60;42.70;;;;;;5073852;28;19985;-42
2022/03/02 01:54:24;;;;;;;;;;;21.60;42.70;;;;;;5074208;28;20424;-44
2022/03/02 01:56:51;;;;;;;;;;;21.60;42.70;;;;;;5073568;28;19974;-43
2022/03/02 01:59:18;;;;;;;;;;;21.60;43.30;;;;;;5073774;28;20518;-44
2022/03/02 02:01:47;;;;;;;;;;;21.60;42.70;;;;;;5073456;28;19925;-44
2022/03/02 02:04:14;;;;;;;;;;;21.60;42.70;;;;;;5072766;28;20410;-43
2022/03/02 02:06:41;;;;;;;;;;;21.60;42.80;;;;;;5073831;28;19970;-43
2022/03/02 02:09:08;;;;;;;;;;;21.60;42.80;;;;;;5073801;28;20019;-45
2022/03/02 02:11:35;;;;;;;;;;;21.60;42.80;;;;;;5073658;28;20295;-46
2022/03/02 02:14:02;;;;;;;;;;;21.60;42.80;;;;;;5073393;28;19928;-45
2022/03/02 02:16:29;;;;;;;;;;;21.50;42.70;;;;;;5073353;28;20410;-44
2022/03/02 02:18:56;;;;;;;;;;;21.60;42.80;;;;;;5072458;28;19928;-43
2022/03/02 02:21:23;;;;;;;;;;;21.50;42.70;;;;;;5073165;28;19924;-42
2022/03/02 02:23:50;;;;;;;;;;;21.50;42.70;;;;;;5074550;28;19977;-42
2022/03/02 02:26:21;;;;;;;;;;;21.50;42.70;;;;;;5073624;28;19974;-42
2022/03/02 02:28:49;;;;;;;;;;;21.50;42.80;;;;;;5073354;28;19936;-44
2022/03/02 02:31:16;;;;;;;;;;;21.50;42.70;;;;;;5073764;28;19947;-47
2022/03/02 02:33:43;;;;;;;;;;;21.50;42.80;;;;;;5072670;28;19932;-45
2022/03/02 02:36:11;;;;;;;;;;;21.50;42.80;;;;;;5073242;28;19924;-44
2022/03/02 02:38:38;;;;;;;;;;;21.50;42.80;;;;;;5073199;28;19979;-46
2022/03/02 02:41:05;;;;;;;;;;;21.50;42.80;;;;;;5062193;28;19971;-43
2022/03/02 02:43:32;;;;;;;;;;;21.50;42.80;;;;;;5057110;28;20403;-48
2022/03/02 02:45:59;;;;;;;;;;;21.50;42.80;;;;;;5057478;28;19925;-46
2022/03/02 02:48:26;;;;;;;;;;;21.50;42.80;;;;;;5064454;28;19930;-47
2022/03/02 02:50:53;;;;;;;;;;;21.50;42.80;;;;;;5077316;28;19924;-43
2022/03/02 02:53:20;;;;;;;;;;;21.50;42.80;;;;;;5077332;28;19924;-42
2022/03/02 02:55:47;;;;;;;;;;;21.50;42.80;;;;;;5076163;28;19928;-43
2022/03/02 02:58:14;;;;;;;;;;;21.50;42.80;;;;;;5057253;28;20355;-45
2022/03/02 03:00:43;;;;;;;;;;;21.50;42.80;;;;;;5057211;28;20319;-46
2022/03/02 03:03:11;;;;;;;;;;;21.50;42.80;;;;;;5060623;28;19931;-45
2022/03/02 03:05:38;;;;;;;;;;;21.50;42.80;;;;;;5077938;28;19928;-47
2022/03/02 03:08:06;;;;;;;;;;;21.50;42.90;;;;;;5077051;28;19929;-43
2022/03/02 03:10:33;;;;;;;;;;;21.50;42.80;;;;;;5076699;28;20385;-47
2022/03/02 03:13:00;;;;;;;;;;;21.50;42.80;;;;;;5076825;28;20332;-46
2022/03/02 03:15:28;;;;;;;;;;;21.50;42.90;;;;;;5076831;28;19924;-44
2022/03/02 03:17:55;;;;;;;;;;;21.50;42.90;;;;;;5076218;28;19929;-46
2022/03/02 03:20:25;;;;;;;;;;;21.50;42.90;;;;;;5076288;28;19925;-48
2022/03/02 03:22:52;;;;;;;;;;;21.50;42.90;;;;;;5076412;28;20338;-47
2022/03/02 03:25:20;;;;;;;;;;;21.50;42.90;;;;;;5076278;28;19925;-47
2022/03/02 03:27:47;;;;;;;;;;;21.50;42.90;;;;;;5076313;28;19970;-49
2022/03/02 03:30:15;;;;;;;;;;;21.40;42.80;;;;;;5076317;28;19925;-48
2022/03/02 03:32:42;;;;;;;;;;;21.40;42.80;;;;;;5076474;28;19955;-49
2022/03/02 03:35:10;;;;;;;;;;;21.40;42.80;;;;;;5075296;28;19929;-47
2022/03/02 03:37:38;;;;;;;;;;;21.40;42.80;;;;;;5076166;28;20372;-45
2022/03/02 03:40:06;;;;;;;;;;;21.40;42.90;;;;;;5076122;28;19924;-48
2022/03/02 03:42:33;;;;;;;;;;;21.40;42.90;;;;;;5075848;28;20414;-42
2022/03/02 03:45:01;;;;;;;;;;;21.40;42.90;;;;;;5075991;28;19924;-44
2022/03/02 03:47:28;;;;;;;;;;;21.40;42.90;;;;;;5076039;28;19924;-43
2022/03/02 03:49:54;;;;;;;;;;;21.40;42.90;;;;;;5075277;28;19928;-42
2022/03/02 03:52:21;;;;;;;;;;;21.40;42.90;;;;;;5075605;28;19928;-42
2022/03/02 03:54:48;;;;;;;;;;;21.40;43.00;;;;;;5076223;28;19929;-44
2022/03/02 03:57:15;;;;;;;;;;;21.40;43.00;;;;;;5075771;28;19976;-46
2022/03/02 03:59:43;;;;;;;;;;;21.40;43.00;;;;;;5075813;28;20427;-42
2022/03/02 04:02:10;;;;;;;;;;;21.40;43.00;;;;;;5075680;28;19928;-44
2022/03/02 04:04:37;;;;;;;;;;;21.40;43.00;;;;;;5075023;28;19933;-47
2022/03/02 04:07:04;;;;;;;;;;;21.40;43.00;;;;;;5075977;28;20279;-44
2022/03/02 04:09:31;;;;;;;;;;;21.40;43.00;;;;;;5075646;28;20384;-45
2022/03/02 04:11:58;;;;;;;;;;;21.40;43.00;;;;;;5075506;28;20415;-46
2022/03/02 04:14:25;;;;;;;;;;;21.40;43.00;;;;;;5075472;28;19924;-42
2022/03/02 04:16:52;;;;;;;;;;;21.40;43.00;;;;;;5075487;28;19939;-45
2022/03/02 04:19:19;;;;;;;;;;;21.40;43.00;;;;;;5074746;28;19993;-43
2022/03/02 04:21:46;;;;;;;;;;;21.40;43.00;;;;;;5075211;28;20034;-43
2022/03/02 04:24:13;;;;;;;;;;;21.40;43.00;;;;;;5075403;28;19931;-42
2022/03/02 04:26:40;;;;;;;;;;;21.40;43.00;;;;;;5075563;28;19924;-44
2022/03/02 04:29:07;;;;;;;;;;;21.40;43.00;;;;;;5075545;28;19970;-42
2022/03/02 04:31:34;;;;;;;;;;;21.40;43.00;;;;;;5075191;28;19974;-42
2022/03/02 04:34:01;;;;;;;;;;;21.40;43.00;;;;;;5074311;28;19924;-43
2022/03/02 04:36:28;;;;;;;;;;;21.40;43.00;;;;;;5075371;28;19932;-43
2022/03/02 04:38:55;;;;;;;;;;;21.40;43.00;;;;;;5075000;28;19924;-45
2022/03/02 04:41:22;;;;;;;;;;;21.40;43.00;;;;;;5074854;28;19974;-43
2022/03/02 04:43:49;;;;;;;;;;;21.30;43.00;;;;;;5076010;28;19977;-42
2022/03/02 04:46:16;;;;;;;;;;;21.40;43.10;;;;;;5075451;28;19970;-46
2022/03/02 04:48:43;;;;;;;;;;;21.30;43.00;;;;;;5074177;28;19978;-45
2022/03/02 04:51:10;;;;;;;;;;;21.30;43.00;;;;;;5074381;28;19928;-45
2022/03/02 04:53:37;;;;;;;;;;;21.30;43.00;;;;;;5074673;28;19951;-47
2022/03/02 04:56:04;;;;;;;;;;;21.30;43.00;;;;;;5074835;28;19931;-42
2022/03/02 04:58:31;;;;;;;;;;;21.30;43.00;;;;;;5056935;28;20384;-42
2022/03/02 05:00:58;;;;;;;;;;;21.30;43.00;;;;;;5074523;28;19928;-44
2022/03/02 05:03:25;;;;;;;;;;;21.30;43.00;;;;;;5073978;28;19924;-43
2022/03/02 05:05:53;;;;;;;;;;;21.40;43.10;;;;;;5073384;28;19978;-44
2022/03/02 05:08:20;;;;;;;;;;;21.30;43.00;;;;;;5074682;28;19964;-44
2022/03/02 05:10:47;;;;;;;;;;;21.30;43.00;;;;;;5074309;28;20011;-45
2022/03/02 05:13:14;;;;;;;;;;;21.30;43.00;;;;;;5074258;28;19932;-45
2022/03/02 05:15:41;;;;;;;;;;;21.30;43.00;;;;;;5074697;28;20019;-42
2022/03/02 05:18:08;;;;;;;;;;;21.30;43.00;;;;;;5074298;28;19971;-43
2022/03/02 05:20:35;;;;;;;;;;;21.30;43.00;;;;;;5073215;28;19978;-43
2022/03/02 05:23:02;;;;;;;;;;;21.30;43.00;;;;;;5073917;28;20422;-46
2022/03/02 05:25:29;;;;;;;;;;;21.30;43.00;;;;;;5073769;28;19925;-43
2022/03/02 05:27:56;;;;;;;;;;;21.30;43.00;;;;;;5075206;28;19950;-45
2022/03/02 05:30:23;;;;;;;;;;;21.30;43.00;;;;;;5074357;28;19947;-42
2022/03/02 05:32:50;;;;;;;;;;;21.30;43.70;;;;;;5073997;28;19924;-43
2022/03/02 05:35:17;;;;;;;;;;;21.30;43.00;;;;;;5073099;28;19924;-43
2022/03/02 05:37:44;;;;;;;;;;;21.30;43.00;;;;;;5073913;28;19924;-43
2022/03/02 05:40:13;;;;;;;;;;;21.30;43.00;;;;;;5074171;28;19925;-42
2022/03/02 05:42:40;;;;;;;;;;;21.30;43.00;;;;;;5073745;28;19939;-42
2022/03/02 05:45:07;;;;;;;;;;;21.30;43.00;;;;;;5074310;28;19928;-49
2022/03/02 05:47:35;;;;;;;;;;;21.30;43.10;;;;;;5073709;28;19970;-44
2022/03/02 05:50:03;;;;;;;;;;;21.30;43.00;;;;;;5072851;28;19924;-42
2022/03/02 05:52:30;;;;;;;;;;;21.30;43.00;;;;;;5073466;28;19954;-43
2022/03/02 05:54:57;;;;;;;;;;;21.30;43.00;;;;;;5073992;28;19974;-45
2022/03/02 05:57:24;;;;;;;;;;;21.30;43.00;;;;;;5073701;28;19954;-42
2022/03/02 05:59:51;;;;;;;;;;;21.30;43.00;;;;;;5073970;28;19924;-42
2022/03/02 06:02:18;;;;;;;;;;;21.30;43.00;;;;;;5055941;28;19928;-45
2022/03/02 06:04:47;;;;;;;;;;;21.30;43.10;;;;;;5073046;28;19974;-44
2022/03/02 06:07:14;;;;;;;;;;;21.30;43.00;;;;;;5073530;28;19925;-42
2022/03/02 06:09:41;;;;;;;;;;;21.30;43.00;;;;;;5073834;28;20287;-44
2022/03/02 06:12:08;;;;;;;;;;;21.30;43.00;;;;;;5073239;28;20377;-47
2022/03/02 06:14:35;;;;;;;;;;;21.30;43.00;;;;;;5073352;28;19924;-42
2022/03/02 06:17:03;;;;;;;;;;;21.30;43.00;;;;;;5073342;28;19932;-47
2022/03/02 06:19:30;;;;;;;;;;;21.30;43.00;;;;;;5073310;28;19971;-44
2022/03/02 06:21:58;;;;;;;;;;;21.30;43.00;;;;;;5072751;28;20430;-45
2022/03/02 06:24:25;;;;;;;;;;;21.30;43.00;;;;;;5073544;28;19986;-45
2022/03/02 06:26:52;;;;;;;;;;;21.30;43.00;;;;;;5055493;28;20007;-43
2022/03/02 06:29:19;;;;;;;;;;;21.30;43.00;;;;;;5073279;28;19932;-44
2022/03/02 06:31:46;;;;;;;;;;;21.30;43.00;;;;;;5073569;28;19974;-43
2022/03/02 06:34:13;;;;;;;;;;;21.30;43.00;;;;;;5073266;28;19924;-43
2022/03/02 06:36:40;;;;;;;;;;;21.30;43.00;;;;;;5072989;28;19924;-47
2022/03/02 06:39:08;;;;;;;;;;;21.30;43.00;;;;;;5073101;28;20368;-46
2022/03/02 06:41:35;;;;;;;;;;;21.30;42.90;;;;;;5070730;28;19932;-44
2022/03/02 06:44:04;;;;;;;;;;;21.30;42.90;;;;;;5071907;28;19970;-43
2022/03/02 06:46:47;;;;;;;;;;;21.30;43.00;;;;;;5072260;28;20395;-43
2022/03/02 06:49:21;;;;;;;;;;;21.30;42.90;;;;;;5071378;28;19932;-43
2022/03/02 06:51:49;;;;;;;;;;;21.30;42.90;;;;;;5052735;28;19924;-42
2022/03/02 06:54:18;;;;;;;;;;;21.30;42.90;;;;;;5072373;28;20376;-44
2022/03/02 06:56:49;;;;;;;;;;;21.40;43.00;;;;;;5070360;28;19925;-46
2022/03/02 06:59:27;;;;;;;;;;;21.30;42.90;;;;;;5072638;28;19924;-45
2022/03/02 07:01:58;;;;;;;;;;;21.40;43.00;;;;;;5072376;28;19925;-44
2022/03/02 07:04:27;;;;;;;;;;;21.40;43.00;;;;;;5070695;28;19925;-43
2022/03/02 07:06:55;;;;;;;;;;;21.40;42.90;;;;;;5071484;28;20380;-44
2022/03/02 07:09:23;;;;;;;;;;;21.40;42.90;;;;;;5071887;28;19982;-45
2022/03/02 07:11:50;;;;;;;;;;;21.40;42.90;;;;;;5070998;28;19925;-43
2022/03/02 07:14:17;;;;;;;;;;;21.40;42.90;;;;;;5072268;28;19925;-42
2022/03/02 07:16:44;;;;;;;;;;;21.40;42.90;;;;;;5071331;28;20020;-45
2022/03/02 07:19:12;;;;;;;;;;;21.40;42.90;;;;;;5071515;28;19924;-41
2022/03/02 07:21:43;;;;;;;;;;;21.40;42.80;;;;;;5070938;28;19982;-50
2022/03/02 07:24:20;;;;;;;;;;;21.40;42.80;;;;;;5070570;28;20457;-46
2022/03/02 07:26:51;;;;;;;;;;;21.40;42.80;;;;;;5071615;28;19925;-47
2022/03/02 07:29:19;;;;;;;;;;;21.40;42.80;;;;;;5075754;28;19924;-48
2022/03/02 07:31:46;;;;;;;;;;;21.40;42.80;;;;;;5075210;28;19924;-48
2022/03/02 07:34:20;;;;;;;;;;;21.40;42.80;;;;;;5075613;28;20437;-45
2022/03/02 07:36:47;;;;;;;;;;;21.40;42.80;;;;;;5074698;28;20462;-49
2022/03/02 07:39:14;;;;;;;;;;;21.40;42.80;;;;;;5074912;28;19982;-45
2022/03/02 07:41:41;;;;;;;;;;;21.40;42.80;;;;;;5075523;28;20354;-52
2022/03/02 07:44:08;;;;;;;;;;;21.40;42.80;;;;;;5075485;28;19924;-47
2022/03/02 07:46:35;;;;;;;;;;;21.40;42.80;;;;;;5074595;28;19924;-49
2022/03/02 07:49:04;;;;;;;;;;;21.40;42.80;;;;;;5075659;28;19971;-44
2022/03/02 07:51:33;;;;;;;;;;;21.40;42.80;;;;;;5074384;28;19985;-44
2022/03/02 07:54:01;;;;;;;;;;;21.50;42.80;;;;;;5074357;28;19932;-45
2022/03/02 07:56:29;;;;;;;;;;;21.40;42.80;;;;;;5074991;28;20384;-49
2022/03/02 07:59:06;;;;;;;;;;;21.40;42.70;;;;;;5075136;28;19928;-47
2022/03/02 08:01:39;;;;;;;;;;;21.50;42.80;;;;;;5074670;28;19935;-45
2022/03/02 08:04:07;;;;;;;;;;;21.50;42.80;;;;;;5074834;28;19972;-49
2022/03/02 08:06:36;;;;;;;;;;;21.50;42.80;;;;;;5074042;28;19924;-50
2022/03/02 08:09:04;;;;;;;;;;;21.50;42.70;;;;;;5056764;28;19956;-46
2022/03/02 08:11:33;;;;;;;;;;;21.50;43.00;;;;;;5074789;28;20440;-48
2022/03/02 08:14:03;;;;;;;;;;;21.50;42.70;;;;;;5074574;28;19932;-46
2022/03/02 08:16:31;;;;;;;;;;;21.50;42.70;;;;;;5074654;28;19986;-49
2022/03/02 08:19:01;;;;;;;;;;;21.50;42.70;;;;;;5074460;28;19924;-49
2022/03/02 08:21:32;;;;;;;;;;;21.50;42.70;;;;;;5073720;28;19970;-51
2022/03/02 08:24:02;;;;;;;;;;;21.50;43.30;;;;;;5074242;28;19979;-49
2022/03/02 08:26:32;;;;;;;;;;;21.50;42.70;;;;;;5075226;28;19978;-49
2022/03/02 08:29:04;;;;;;;;;;;21.60;42.70;;;;;;5074058;28;19973;-45
2022/03/02 08:31:31;;;;;;;;;;;21.60;42.80;;;;;;5074343;28;19924;-45
2022/03/02 08:34:00;;;;;;;;;;;21.60;42.70;;;;;;5074674;28;19924;-45
2022/03/02 08:36:29;;;;;;;;;;;21.60;42.70;;;;;;5073170;28;20946;-45
2022/03/02 08:38:56;;;;;;;;;;;21.60;42.60;;;;;;5074706;28;19968;-45
2022/03/02 08:41:27;;;;;;;;;;;21.60;42.60;;;;;;5074299;28;19970;-46
2022/03/02 08:43:55;;;;;;;;;;;21.60;42.60;;;;;;5073781;28;19932;-45
2022/03/02 08:46:22;;;;;;;;;;;21.60;42.60;;;;;;5074426;28;19996;-49
2022/03/02 08:48:49;;;;;;;;;;;21.60;42.60;;;;;;5074230;28;20396;-45
2022/03/02 08:51:17;;;;;;;;;;;21.60;42.60;;;;;;5072497;28;19928;-50
2022/03/02 08:53:45;;;;;;;;;;;21.70;42.60;;;;;;5074364;28;19924;-50
2022/03/02 08:56:12;;;;;;;;;;;21.70;42.60;;;;;;5074249;28;20338;-47
2022/03/02 08:58:40;;;;;;;;;;;21.70;42.60;;;;;;5073514;28;19932;-48
2022/03/02 09:01:10;;;;;;;;;;;21.70;42.60;;;;;;5073902;28;20014;-48
2022/03/02 09:03:42;;;;;;;;;;;21.70;42.60;;;;;;5073814;28;19926;-53
2022/03/02 09:06:10;;;;;;;;;;;21.70;42.60;;;;;;5073556;28;19928;-49
2022/03/02 09:08:37;;;;;;;;;;;21.70;42.60;;;;;;5072951;28;19929;-52
2022/03/02 09:11:05;;;;;;;;;;;21.80;42.60;;;;;;5073444;28;20411;-49
2022/03/02 09:13:32;;;;;;;;;;;21.80;42.60;;;;;;5073352;28;19928;-44
2022/03/02 09:15:59;;;;;;;;;;;21.80;42.60;;;;;;5073578;28;19925;-51
2022/03/02 09:18:26;;;;;;;;;;;21.80;42.60;;;;;;5055700;28;20052;-48
2022/03/02 09:20:56;;;;;;;;;;;21.80;42.50;;;;;;5073053;28;20313;-48
2022/03/02 09:23:25;;;;;;;;;;;21.80;42.50;;;;;;5072785;28;19925;-47
2022/03/02 09:25:54;;;;;;;;;;;21.80;42.50;;;;;;5073014;28;19925;-47
2022/03/02 09:28:21;;;;;;;;;;;21.80;42.50;;;;;;5073155;28;20395;-51
2022/03/02 09:30:49;;;;;;;;;;;21.80;42.50;;;;;;5073604;28;19925;-47
2022/03/02 09:33:18;;;;;;;;;;;21.80;42.50;;;;;;5055097;28;20045;-45
2022/03/02 09:35:45;;;;;;;;;;;21.80;42.50;;;;;;5073581;28;19924;-45
2022/03/02 09:38:12;;;;;;;;;;;21.90;42.60;;;;;;5072602;28;19974;-42
2022/03/02 09:40:43;;;;;;;;;;;21.90;42.50;;;;;;5072721;28;19972;-43
2022/03/02 09:43:15;;;;;;;;;;;21.90;42.50;;;;;;5073381;28;19978;-46
2022/03/02 09:45:42;;;;;;;;;;;21.90;42.50;;;;;;5073347;28;19971;-45
2022/03/02 09:48:15;;;;;;;;;;;21.90;42.40;;;;;;5072718;28;19925;-44
2022/03/02 09:50:43;;;;;;;;;;;22.00;42.50;;;;;;5072527;28;20453;-45
2022/03/02 09:53:14;;;;;;;;;;;22.00;42.50;;;;;;5053774;28;19928;-46
2022/03/02 09:55:43;;;;;;;;;;;22.00;42.50;;;;;;5073241;28;19924;-44
2022/03/02 09:58:12;;;;;;;;;;;22.00;42.50;;;;;;5072958;28;20018;-44
2022/03/02 10:00:41;;;;;;;;;;;22.00;42.40;;;;;;5072597;28;19928;-49
2022/03/02 10:03:09;;;;;;;;;;;22.00;42.40;;;;;;5072683;28;20011;-45
2022/03/02 10:05:39;;;;;;;;;;;22.00;42.40;;;;;;5072822;28;19978;-46
2022/03/02 10:08:07;;;;;;;;;;;22.00;42.40;;;;;;5063179;28;20438;-47
2022/03/02 10:10:36;;;;;;;;;;;22.00;42.40;;;;;;5052704;28;19943;-42
2022/03/02 10:13:05;;;;;;;;;;;22.00;42.40;;;;;;5052612;28;19932;-42
2022/03/02 10:15:32;;;;;;;;;;;22.00;42.40;;;;;;5052045;28;19936;-47
2022/03/02 10:18:04;;;;;;;;;;;22.10;42.50;;;;;;5052854;28;19924;-49
2022/03/02 10:20:34;;;;;;;;;;;22.10;42.50;;;;;;5052136;28;19924;-49
2022/03/02 10:23:11;;;;;;;;;;;22.10;42.50;;;;;;5058367;28;19960;-48
2022/03/02 10:25:53;;;;;;;;;;;22.10;42.50;;;;;;5072987;28;19976;-45
2022/03/02 10:28:39;;;;;;;;;;;22.10;42.40;;;;;;5071929;28;19975;-47
2022/03/02 10:31:29;;;;;;;;;;;22.10;42.40;;;;;;5072193;28;19986;-51
2022/03/02 10:34:01;;;;;;;;;;;22.10;42.40;;;;;;5042853;28;19924;-50
2022/03/02 10:36:29;;;;;;;;;;;22.10;42.40;;;;;;5054513;28;19971;-43
2022/03/02 10:39:03;;;;;;;;;;;22.10;42.50;;;;;;5072018;28;19959;-52
2022/03/02 10:41:34;;;;;;;;;;;22.20;42.50;;;;;;5073020;28;19964;-53
2022/03/02 10:44:03;;;;;;;;;;;22.20;42.60;;;;;;5073232;28;20425;-53
2022/03/02 10:46:30;;;;;;;;;;;22.20;42.50;;;;;;5072679;28;20366;-51
2022/03/02 10:49:17;;;;;;;;;;;22.20;42.40;;;;;;5072995;28;20008;-51
2022/03/02 10:51:44;;;;;;;;;;;22.20;42.40;;;;;;5072955;28;19978;-51
2022/03/02 10:54:15;;;;;;;;;;;22.20;42.40;;;;;;5072014;28;20019;-52
2022/03/02 10:56:42;;;;;;;;;;;22.30;42.40;;;;;;5073414;28;20376;-53
2022/03/02 10:59:16;;;;;;;;;;;22.30;42.40;;;;;;5072950;28;20019;-49
2022/03/02 11:01:49;;;;;;;;;;;22.30;42.30;;;;;;5072732;28;19924;-52
2022/03/02 11:04:20;;;;;;;;;;;22.30;42.30;;;;;;5077159;28;20376;-51
2022/03/02 11:06:48;;;;;;;;;;;22.40;42.40;;;;;;5077133;28;20051;-51
2022/03/02 11:09:35;;;;;;;;;;;22.40;42.40;;;;;;5076247;28;19931;-51
2022/03/02 11:12:02;;;;;;;;;;;22.40;42.30;;;;;;5076790;28;19951;-50
2022/03/02 11:14:29;;;;;;;;;;;22.40;42.30;;;;;;5058968;28;19967;-52
2022/03/02 11:17:13;;;;;;;;;;;22.40;42.30;;;;;;5075973;28;19938;-51
2022/03/02 11:19:45;;;;;;;;;;;22.40;42.30;;;;;;5076733;28;19925;-46
2022/03/02 11:22:20;;;;;;;;;;;22.50;42.30;;;;;;5076707;28;20273;-50
2022/03/02 11:24:47;;;;;;;;;;;22.50;42.10;;;;;;5075644;28;19932;-47
2022/03/02 11:27:33;;;;;;;;;;;22.50;42.10;;;;;;5076824;28;19935;-50
2022/03/02 11:30:10;;;;;;;;;;;22.50;42.00;;;;;;5076593;28;19932;-50
2022/03/02 11:32:39;;;;;;;;;;;22.50;41.90;;;;;;5076050;28;19929;-51
2022/03/02 11:35:10;;;;;;;;;;;22.50;41.70;;;;;;5076482;28;20319;-50
2022/03/02 11:37:37;;;;;;;;;;;22.60;41.70;;;;;;5076174;28;19924;-50
2022/03/02 11:40:06;;;;;;;;;;;22.60;41.70;;;;;;5075666;28;19947;-50
2022/03/02 11:42:35;;;;;;;;;;;22.60;41.60;;;;;;5076575;28;20429;-49
2022/03/02 11:45:02;;;;;;;;;;;22.60;41.60;;;;;;5076373;28;20015;-49
2022/03/02 11:47:55;;;;;;;;;;;22.60;41.50;;;;;;5075696;28;19925;-51
2022/03/02 11:50:22;;;;;;;;;;;22.60;41.40;;;;;;5076152;28;19967;-49
2022/03/02 11:52:49;;;;;;;;;;;22.60;41.40;;;;;;5076156;28;19971;-50
2022/03/02 11:55:17;;;;;;;;;;;22.60;41.30;;;;;;5075182;28;19968;-48
2022/03/02 11:57:52;;;;;;;;;;;22.70;41.30;;;;;;5076039;28;20120;-49
2022/03/02 12:00:20;;;;;;;;;;;22.60;41.20;;;;;;5075909;28;19968;-47
2022/03/02 12:02:47;;;;;;;;;;;22.70;41.20;;;;;;5075419;28;19924;-50
2022/03/02 12:05:15;;;;;;;;;;;22.70;41.10;;;;;;5075743;28;19974;-49
2022/03/02 12:07:43;;;;;;;;;;;22.70;41.00;;;;;;5075766;28;19924;-50
2022/03/02 12:10:15;;;;;;;;;;;22.70;40.90;;;;;;5074847;28;19925;-49
2022/03/02 12:12:42;;;;;;;;;;;22.70;40.80;;;;;;5075698;28;19932;-49
2022/03/02 12:15:10;;;;;;;;;;;22.80;40.90;;;;;;5075907;28;19936;-51
2022/03/02 12:17:37;;;;;;;;;;;22.80;40.80;;;;;;5075097;28;19925;-45
2022/03/02 12:20:15;;;;;;;;;;;22.80;40.80;;;;;;5075880;28;20019;-48
2022/03/02 12:22:48;;;;;;;;;;;22.80;40.70;;;;;;5075279;28;19978;-45
2022/03/02 12:25:19;;;;;;;;;;;22.80;40.60;;;;;;5074802;28;19924;-45
2022/03/02 12:27:59;;;;;;;;;;;22.80;40.60;;;;;;5075625;28;19932;-45
2022/03/02 12:30:31;;;;;;;;;;;22.80;40.50;;;;;;5075584;28;19936;-42
2022/03/02 12:32:58;;;;;;;;;;;22.80;40.50;;;;;;5074507;28;19960;-52
2022/03/02 12:35:25;;;;;;;;;;;22.80;40.40;;;;;;5075143;28;19924;-45
2022/03/02 12:37:53;;;;;;;;;;;22.80;40.50;;;;;;5075423;28;20038;-50
2022/03/02 12:40:21;;;;;;;;;;;22.90;40.50;;;;;;5074645;28;19960;-45
2022/03/02 12:42:48;;;;;;;;;;;22.80;40.40;;;;;;5075148;28;19925;-44
2022/03/02 12:45:15;;;;;;;;;;;22.80;40.40;;;;;;5074963;28;20475;-46
2022/03/02 12:47:42;;;;;;;;;;;22.80;40.40;;;;;;5074624;28;19928;-43
2022/03/02 12:50:13;;;;;;;;;;;22.80;40.40;;;;;;5075209;28;19994;-43
2022/03/02 12:52:40;;;;;;;;;;;22.80;40.40;;;;;;5074944;28;19932;-46
2022/03/02 12:55:08;;;;;;;;;;;22.80;40.40;;;;;;5074417;28;19928;-43
2022/03/02 12:57:36;;;;;;;;;;;22.80;40.30;;;;;;5074655;28;19924;-44
2022/03/02 13:00:15;;;;;;;;;;;22.80;40.30;;;;;;5074645;28;19978;-42
2022/03/02 13:02:43;;;;;;;;;;;22.90;40.40;;;;;;5074039;28;20292;-45
2022/03/02 13:05:10;;;;;;;;;;;22.90;40.30;;;;;;5074380;28;19935;-46
2022/03/02 13:07:46;;;;;;;;;;;22.90;40.30;;;;;;5074843;28;19978;-45
2022/03/02 13:10:13;;;;;;;;;;;22.90;40.30;;;;;;5073617;28;19971;-46
2022/03/02 13:12:42;;;;;;;;;;;22.90;40.30;;;;;;5074754;28;19978;-46
2022/03/02 13:15:29;;;;;;;;;;;22.90;40.30;;;;;;5074355;28;19970;-45
2022/03/02 13:18:08;;;;;;;;;;;22.90;40.20;;;;;;5064003;28;19925;-46
2022/03/02 13:20:36;;;;;;;;;;;22.90;40.20;;;;;;5074103;28;19954;-46
2022/03/02 13:23:17;;;;;;;;;;;22.90;40.20;;;;;;5074245;28;19965;-44
2022/03/02 13:25:59;;;;;;;;;;;22.90;40.20;;;;;;5072592;28;20375;-45
2022/03/02 13:28:29;;;;;;;;;;;23.00;40.20;;;;;;5074389;28;19925;-48
2022/03/02 13:31:09;;;;;;;;;;;23.00;40.20;;;;;;5074027;28;19928;-43
2022/03/02 13:33:55;;;;;;;;;;;23.00;40.10;;;;;;5073604;28;19924;-46
2022/03/02 13:36:35;;;;;;;;;;;23.00;40.00;;;;;;5074317;28;19990;-46
2022/03/02 13:39:09;;;;;;;;;;;23.00;40.10;;;;;;5074181;28;19967;-44
2022/03/02 13:41:47;;;;;;;;;;;23.00;40.00;;;;;;5072963;28;19978;-43
2022/03/02 13:44:21;;;;;;;;;;;23.10;40.10;;;;;;5074009;28;19924;-45
2022/03/02 13:47:21;;;;;;;;;;;23.10;40.10;;;;;;5073788;28;19969;-44
2022/03/02 13:49:53;;;;;;;;;;;23.10;40.00;;;;;;5011415;28;19935;-45
2022/03/02 13:52:28;;;;;;;;;;;23.10;40.00;;;;;;5011944;28;20373;-45
2022/03/02 13:54:57;;;;;;;;;;;23.10;39.90;;;;;;5011202;28;19934;-45
2022/03/02 13:57:25;;;;;;;;;;;23.10;39.90;;;;;;5012016;28;19961;-45
2022/03/02 14:00:11;;;;;;;;;;;23.10;40.00;;;;;;5012060;28;19930;-49
2022/03/02 14:02:38;;;;;;;;;;;23.10;40.00;;;;;;5011985;28;20275;-47
2022/03/02 14:05:06;;;;;;;;;;;23.10;40.00;;;;;;5011063;28;20440;-43
2022/03/02 14:07:35;;;;;;;;;;;23.10;39.90;;;;;;5011808;28;20297;-48
2022/03/02 14:10:03;;;;;;;;;;;23.10;39.90;;;;;;5010958;28;20072;-47
2022/03/02 14:12:30;;;;;;;;;;;23.10;40.00;;;;;;5011776;28;20045;-49
2022/03/02 14:15:09;;;;;;;;;;;23.10;40.00;;;;;;5011805;28;19930;-45
2022/03/02 14:17:36;;;;;;;;;;;23.10;40.10;;;;;;5011687;28;20361;-51
2022/03/02 14:20:04;;;;;;;;;;;23.00;39.90;;;;;;5010806;28;19984;-43
2022/03/02 14:22:31;;;;;;;;;;;23.10;40.00;;;;;;5011483;28;20393;-46
2022/03/02 14:24:58;;;;;;;;;;;23.10;40.10;;;;;;5025484;28;20379;-53
2022/03/02 14:27:25;;;;;;;;;;;23.10;40.10;;;;;;5073557;28;20277;-50